Time;durP1;ratioP1;P1;durP2;ratioP2;P2;SDS_P1;SDS_P2;PMS_P1;PMS_P2;Temp;Humidity;BMP_temperature;BMP_pressure;BME280_temperature;BME280_humidity;BME280_pressure;Samples;Min_cycle;Max_cycle;Signal;HPM_P1;HPM_P2
2023/09/07 00:02:25;;;;;;;6.47;3.70;;;;;;;-145.48;100.00;64539.38;5980095;29;20058;-88
2023/09/07 00:05:40;;;;;;;5.30;3.38;;;;;;;-145.48;100.00;64539.38;5979512;29;20053;-88
2023/09/07 00:08:43;;;;;;;4.47;4.03;;;;;;;-145.48;100.00;64539.38;5982002;29;20051;-87
2023/09/07 00:11:45;;;;;;;4.88;3.90;;;;;;;-145.48;100.00;64539.38;5977548;29;20034;-88
2023/09/07 00:14:47;;;;;;;4.72;3.85;;;;;;;-145.48;100.00;64539.38;5972718;29;20406;-87
2023/09/07 00:17:51;;;;;;;7.15;4.15;;;;;;;-145.48;100.00;64539.38;5979412;29;20039;-88
2023/09/07 00:20:53;;;;;;;6.82;4.15;;;;;;;-145.48;100.00;64539.38;5976763;29;20053;-88
2023/09/07 00:23:55;;;;;;;6.00;4.13;;;;;;;-145.48;100.00;64539.38;5975250;29;20709;-88
2023/09/07 00:26:58;;;;;;;5.28;4.10;;;;;;;-145.48;100.00;64539.38;5983086;29;20277;-87
2023/09/07 00:30:00;;;;;;;5.70;4.65;;;;;;;-145.48;100.00;64539.38;5980145;29;20042;-88
2023/09/07 00:33:03;;;;;;;6.07;3.97;;;;;;;-145.48;100.00;64539.38;5954342;29;20410;-88
2023/09/07 00:36:05;;;;;;;5.60;4.00;;;;;;;-145.48;100.00;64539.38;5978912;29;20051;-88
2023/09/07 00:39:08;;;;;;;4.55;4.03;;;;;;;-145.48;100.00;64539.38;5981006;29;20525;-88
2023/09/07 00:42:10;;;;;;;5.75;4.30;;;;;;;-145.48;100.00;64539.38;5973322;29;20046;-88
2023/09/07 00:45:13;;;;;;;5.32;3.85;;;;;;;-145.48;100.00;64539.38;5978410;29;20058;-88
2023/09/07 00:48:18;;;;;;;5.65;4.68;;;;;;;-145.48;100.00;64539.38;5979777;29;20065;-88
2023/09/07 00:51:21;;;;;;;4.95;4.10;;;;;;;-145.48;100.00;64539.38;5979405;29;20057;-87
2023/09/07 00:54:24;;;;;;;6.07;4.07;;;;;;;-145.48;100.00;64539.38;5977969;29;20054;-87
2023/09/07 00:57:25;;;;;;;4.53;4.00;;;;;;;-145.48;100.00;64539.38;5981053;29;20042;-88
2023/09/07 01:00:27;;;;;;;6.35;4.00;;;;;;;-145.48;100.00;64539.38;5967746;29;20138;-88
2023/09/07 01:03:29;;;;;;;5.22;4.40;;;;;;;-145.48;100.00;64539.38;5964875;29;20497;-87
2023/09/07 01:07:02;;;;;;;4.95;4.35;;;;;;;-145.48;100.00;64539.38;5979063;29;20045;-88
2023/09/07 01:10:06;;;;;;;4.90;4.40;;;;;;;-145.48;100.00;64539.38;5977696;29;20042;-87
2023/09/07 01:13:09;;;;;;;6.65;4.15;;;;;;;-145.48;100.00;64539.38;5964326;29;20043;-88
2023/09/07 01:16:12;;;;;;;11.48;4.65;;;;;;;-145.48;100.00;64539.38;5969393;29;20055;-88
2023/09/07 01:19:14;;;;;;;5.50;4.22;;;;;;;-145.48;100.00;64539.38;5974470;29;20506;-88
2023/09/07 01:22:23;;;;;;;6.28;4.38;;;;;;;-145.48;100.00;64539.38;5974582;29;20051;-87
2023/09/07 01:25:25;;;;;;;7.03;5.07;;;;;;;-145.48;100.00;64539.38;5975453;29;20051;-87
2023/09/07 01:28:27;;;;;;;6.22;4.75;;;;;;;-145.48;100.00;64539.38;5978428;29;20520;-87
2023/09/07 01:31:29;;;;;;;7.05;4.78;;;;;;;-145.48;100.00;64539.38;5972370;29;20055;-88
2023/09/07 01:34:32;;;;;;;5.93;4.18;;;;;;;-145.48;100.00;64539.38;5982485;29;20540;-88
2023/09/07 01:37:34;;;;;;;6.40;4.97;;;;;;;-145.48;100.00;64539.38;5969411;29;20097;-88
2023/09/07 01:40:37;;;;;;;6.70;4.80;;;;;;;-145.48;100.00;64539.38;5975047;29;20047;-87
2023/09/07 01:43:40;;;;;;;7.82;4.60;;;;;;;-145.48;100.00;64539.38;5964979;29;20062;-88
2023/09/07 01:46:42;;;;;;;5.72;5.05;;;;;;;-145.48;100.00;64539.38;5971879;29;20536;-88
2023/09/07 01:49:44;;;;;;;6.07;5.03;;;;;;;-145.48;100.00;64539.38;5974730;29;20069;-88
2023/09/07 01:52:50;;;;;;;7.15;5.18;;;;;;;-145.48;100.00;64539.38;5981216;29;20520;-87
2023/09/07 01:55:55;;;;;;;6.97;4.95;;;;;;;-145.48;100.00;64539.38;5963502;29;20051;-88
2023/09/07 01:58:58;;;;;;;7.88;5.10;;;;;;;-145.48;100.00;64539.38;5962374;29;20051;-88
2023/09/07 02:02:00;;;;;;;6.53;5.55;;;;;;;-145.48;100.00;64539.38;5981661;29;20085;-88
2023/09/07 02:05:02;;;;;;;11.00;5.78;;;;;;;-145.48;100.00;64539.38;5983657;29;20406;-88
2023/09/07 02:08:04;;;;;;;6.68;5.28;;;;;;;-145.48;100.00;64539.38;5984463;29;20042;-88
2023/09/07 02:11:06;;;;;;;6.10;5.20;;;;;;;-145.48;100.00;64539.38;5984002;29;20387;-88
2023/09/07 02:14:09;;;;;;;8.05;5.78;;;;;;;-145.48;100.00;64539.38;5983961;29;20484;-88
2023/09/07 02:17:14;;;;;;;6.78;5.15;;;;;;;-145.48;100.00;64539.38;5982181;29;20046;-87
2023/09/07 02:20:16;;;;;;;7.35;5.60;;;;;;;-145.48;100.00;64539.38;5982157;29;20054;-87
2023/09/07 02:23:18;;;;;;;7.10;5.68;;;;;;;-145.48;100.00;64539.38;5981305;29;20047;-88
2023/09/07 02:26:20;;;;;;;10.35;5.57;;;;;;;-145.48;100.00;64539.38;5976074;29;20073;-88
2023/09/07 02:29:22;;;;;;;10.63;6.30;;;;;;;-145.48;100.00;64539.38;5978495;29;20449;-88
2023/09/07 02:32:24;;;;;;;9.45;5.45;;;;;;;-145.48;100.00;64539.38;5983532;29;20158;-88
2023/09/07 02:35:26;;;;;;;8.38;5.60;;;;;;;-145.48;100.00;64539.38;5981553;29;20540;-87
2023/09/07 02:38:28;;;;;;;6.70;5.57;;;;;;;-145.48;100.00;64539.38;5981273;29;20417;-87
2023/09/07 02:41:32;;;;;;;8.52;5.75;;;;;;;-145.48;100.00;64539.38;5978626;29;20053;-87
2023/09/07 02:44:33;;;;;;;8.25;5.53;;;;;;;-145.48;100.00;64539.38;5974567;29;20055;-87
2023/09/07 02:47:37;;;;;;;9.50;6.72;;;;;;;-145.48;100.00;64539.38;5979713;29;20074;-88
2023/09/07 02:50:39;;;;;;;6.55;5.82;;;;;;;-145.48;100.00;64539.38;5980030;29;20175;-87
2023/09/07 02:53:42;;;;;;;7.03;5.57;;;;;;;-145.48;100.00;64539.38;5984836;29;20445;-87
2023/09/07 02:56:43;;;;;;;8.32;5.53;;;;;;;-145.48;100.00;64539.38;5975163;29;20038;-87
2023/09/07 02:59:46;;;;;;;7.68;6.05;;;;;;;-145.48;100.00;64539.38;5967648;29;20751;-87
2023/09/07 03:02:48;;;;;;;9.75;5.85;;;;;;;-145.48;100.00;64539.38;5980525;29;20085;-88
2023/09/07 03:05:50;;;;;;;6.50;5.78;;;;;;;-145.48;100.00;64539.38;5982888;29;20038;-87
2023/09/07 03:08:53;;;;;;;7.78;6.25;;;;;;;-145.48;100.00;64539.38;5973562;29;20507;-88
2023/09/07 03:11:55;;;;;;;10.52;6.38;;;;;;;-145.48;100.00;64539.38;5974969;29;20628;-88
2023/09/07 03:14:57;;;;;;;7.57;6.18;;;;;;;-145.48;100.00;64539.38;5992625;29;20050;-88
2023/09/07 03:17:59;;;;;;;8.65;6.05;;;;;;;-145.48;100.00;64539.38;5978026;29;20047;-87
2023/09/07 03:21:02;;;;;;;8.45;6.18;;;;;;;-145.48;100.00;64539.38;5974087;29;20076;-88
2023/09/07 03:24:07;;;;;;;6.95;5.88;;;;;;;-145.48;100.00;64539.38;5982311;29;20050;-87
2023/09/07 03:27:10;;;;;;;9.15;7.35;;;;;;;-145.48;100.00;64539.38;5981058;29;20047;-87
2023/09/07 03:30:13;;;;;;;8.88;7.30;;;;;;;-145.48;100.00;64539.38;5964418;29;20062;-88
2023/09/07 03:33:15;;;;;;;9.77;6.50;;;;;;;-145.48;100.00;64539.38;5976188;29;20046;-88
2023/09/07 03:36:16;;;;;;;10.40;7.18;;;;;;;-145.48;100.00;64539.38;5979871;29;20162;-87
2023/09/07 03:39:21;;;;;;;9.32;7.25;;;;;;;-145.48;100.00;64539.38;5958709;29;20046;-87
2023/09/07 03:42:23;;;;;;;9.82;6.88;;;;;;;-145.48;100.00;64539.38;5966160;29;20055;-87
2023/09/07 03:45:25;;;;;;;10.18;7.05;;;;;;;-145.48;100.00;64539.38;5981277;29;20490;-88
2023/09/07 03:48:27;;;;;;;11.00;7.63;;;;;;;-145.48;100.00;64539.38;5980150;29;20076;-87
2023/09/07 03:51:30;;;;;;;10.13;7.47;;;;;;;-145.48;100.00;64539.38;5980040;29;20054;-88
2023/09/07 03:54:32;;;;;;;11.45;7.00;;;;;;;-145.48;100.00;64539.38;5980450;29;20058;-87
2023/09/07 03:57:36;;;;;;;10.13;7.38;;;;;;;-145.48;100.00;64539.38;5981481;29;20046;-88
2023/09/07 04:00:40;;;;;;;8.35;7.20;;;;;;;-145.48;100.00;64539.38;5961948;29;20053;-87
2023/09/07 04:03:42;;;;;;;10.45;7.07;;;;;;;-145.48;100.00;64539.38;5973007;29;20109;-87
2023/09/07 04:06:52;;;;;;;9.73;7.88;;;;;;;-145.48;100.00;64539.38;5980429;29;20805;-88
2023/09/07 04:09:54;;;;;;;9.23;6.90;;;;;;;-145.48;100.00;64539.38;5980779;29;20171;-87
2023/09/07 04:12:56;;;;;;;9.57;6.70;;;;;;;-145.48;100.00;64539.38;5980665;29;20154;-87
2023/09/07 04:15:57;;;;;;;8.00;7.05;;;;;;;-145.48;100.00;64539.38;5980771;29;20107;-87
2023/09/07 04:19:01;;;;;;;9.73;7.25;;;;;;;-145.48;100.00;64539.38;5977920;29;20058;-87
2023/09/07 04:22:03;;;;;;;10.38;6.88;;;;;;;-145.48;100.00;64539.38;5980926;29;20174;-87
2023/09/07 04:25:05;;;;;;;12.95;7.38;;;;;;;-145.48;100.00;64539.38;5979895;29;20046;-87
2023/09/07 04:28:08;;;;;;;11.20;7.45;;;;;;;-145.48;100.00;64539.38;5983103;29;20157;-87
2023/09/07 04:31:10;;;;;;;14.02;7.90;;;;;;;-145.48;100.00;64539.38;5979509;29;20046;-87
2023/09/07 04:34:13;;;;;;;7.05;6.30;;;;;;;-145.48;100.00;64539.38;5967792;29;20513;-87
2023/09/07 04:37:15;;;;;;;8.18;7.00;;;;;;;-145.48;100.00;64539.38;5971070;29;20051;-87
2023/09/07 04:40:17;;;;;;;8.80;7.32;;;;;;;-145.48;100.00;64539.38;5992110;29;20493;-87
2023/09/07 04:43:19;;;;;;;7.72;6.53;;;;;;;-145.48;100.00;64539.38;5980161;29;20165;-87
2023/09/07 04:46:24;;;;;;;8.85;6.80;;;;;;;-145.48;100.00;64539.38;5956776;29;20058;-87
2023/09/07 04:49:26;;;;;;;12.73;7.65;;;;;;;-145.48;100.00;64539.38;5990816;29;20054;-87
2023/09/07 04:52:28;;;;;;;10.43;7.35;;;;;;;-145.48;100.00;64539.38;5975939;29;20062;-87
2023/09/07 04:55:31;;;;;;;8.98;7.07;;;;;;;-145.48;100.00;64539.38;5977972;29;20149;-87
2023/09/07 04:58:34;;;;;;;12.45;7.35;;;;;;;-145.48;100.00;64539.38;5974634;29;20087;-87
2023/09/07 05:01:36;;;;;;;11.00;7.50;;;;;;;-145.48;100.00;64539.38;5966749;29;20106;-87
2023/09/07 05:04:38;;;;;;;10.18;6.78;;;;;;;-145.48;100.00;64539.38;5978764;29;20087;-87
2023/09/07 05:07:41;;;;;;;9.45;7.50;;;;;;;-145.48;100.00;64539.38;5973179;29;20053;-87
2023/09/07 05:10:43;;;;;;;9.48;7.32;;;;;;;-145.48;100.00;64539.38;5979382;29;20054;-87
2023/09/07 05:13:45;;;;;;;9.27;7.63;;;;;;;-145.48;100.00;64539.38;5982565;29;20046;-87
2023/09/07 05:16:49;;;;;;;9.27;7.28;;;;;;;-145.48;100.00;64539.38;5972034;29;20054;-87
2023/09/07 05:19:51;;;;;;;12.10;8.05;;;;;;;-145.48;100.00;64539.38;5976498;29;20433;-87
2023/09/07 05:22:53;;;;;;;8.82;7.38;;;;;;;-145.48;100.00;64539.38;5976854;29;20054;-87
2023/09/07 05:25:56;;;;;;;11.45;6.93;;;;;;;-145.48;100.00;64539.38;5974084;29;20231;-87
2023/09/07 05:29:00;;;;;;;12.25;7.25;;;;;;;-145.48;100.00;64539.38;5983932;29;20540;-87
2023/09/07 05:32:02;;;;;;;11.38;7.43;;;;;;;-145.48;100.00;64539.38;5981013;29;20056;-87
2023/09/07 05:35:06;;;;;;;10.98;7.43;;;;;;;-145.48;100.00;64539.38;5962239;29;20043;-87
2023/09/07 05:38:09;;;;;;;9.38;7.25;;;;;;;-145.48;100.00;64539.38;5971393;29;20050;-87
2023/09/07 05:41:12;;;;;;;9.45;7.47;;;;;;;-145.48;100.00;64539.38;5986274;29;20046;-87
2023/09/07 05:44:15;;;;;;;8.43;7.40;;;;;;;-145.48;100.00;64539.38;5979350;29;20054;-87
2023/09/07 05:47:17;;;;;;;8.63;7.25;;;;;;;-145.48;100.00;64539.38;5980499;29;20051;-87
2023/09/07 05:50:19;;;;;;;10.35;7.43;;;;;;;-145.48;100.00;64539.38;5982411;29;20637;-87
2023/09/07 05:53:22;;;;;;;10.40;7.93;;;;;;;-145.48;100.00;64539.38;5972535;29;20042;-87
2023/09/07 05:56:24;;;;;;;9.02;7.53;;;;;;;-145.48;100.00;64539.38;5982933;29;20588;-86
2023/09/07 05:59:26;;;;;;;11.18;7.25;;;;;;;-145.48;100.00;64539.38;5972169;29;20490;-87
2023/09/07 06:02:28;;;;;;;16.85;8.85;;;;;;;-145.48;100.00;64539.38;5985977;29;20053;-87
2023/09/07 06:05:30;;;;;;;9.45;7.30;;;;;;;-145.48;100.00;64539.38;5973834;29;20050;-87
2023/09/07 06:08:32;;;;;;;10.10;7.70;;;;;;;-145.48;100.00;64539.38;5978288;29;20050;-87
2023/09/07 06:11:35;;;;;;;11.32;7.65;;;;;;;-145.48;100.00;64539.38;5982532;29;20058;-87
2023/09/07 06:14:39;;;;;;;10.23;7.07;;;;;;;-145.48;100.00;64539.38;5982717;29;20459;-87
2023/09/07 06:17:41;;;;;;;9.52;7.75;;;;;;;-145.48;100.00;64539.38;5981873;29;20084;-87
2023/09/07 06:20:44;;;;;;;9.35;7.80;;;;;;;-145.48;100.00;64539.38;5983326;29;20047;-87
2023/09/07 06:23:47;;;;;;;11.93;8.15;;;;;;;-145.48;100.00;64539.38;5980792;29;20054;-87
2023/09/07 06:26:49;;;;;;;9.45;7.72;;;;;;;-145.48;100.00;64539.38;5984533;29;20521;-87
2023/09/07 06:29:53;;;;;;;10.70;7.75;;;;;;;-145.48;100.00;64539.38;5979118;29;20058;-87
2023/09/07 06:32:56;;;;;;;8.80;7.53;;;;;;;-145.48;100.00;64539.38;5984583;29;20050;-87
2023/09/07 06:36:03;;;;;;;10.65;7.90;;;;;;;-145.48;100.00;64539.38;5957151;29;20138;-87
2023/09/07 06:39:06;;;;;;;12.10;8.75;;;;;;;-145.48;100.00;64539.38;5982113;29;20046;-87
2023/09/07 06:42:10;;;;;;;10.63;7.65;;;;;;;-145.48;100.00;64539.38;5975067;29;20095;-87
2023/09/07 06:45:19;;;;;;;9.40;8.05;;;;;;;-145.48;100.00;64539.38;5983537;29;20145;-87
2023/09/07 06:48:21;;;;;;;9.60;7.93;;;;;;;-145.48;100.00;64539.38;5982377;29;20549;-87
2023/09/07 06:51:23;;;;;;;9.77;7.97;;;;;;;-145.48;100.00;64539.38;5975094;29;20059;-87
2023/09/07 06:54:28;;;;;;;10.35;7.28;;;;;;;-145.48;100.00;64539.38;5974216;29;20046;-87
2023/09/07 06:57:30;;;;;;;8.98;7.72;;;;;;;-145.48;100.00;64539.38;5984722;29;20062;-88
2023/09/07 07:00:32;;;;;;;10.70;8.38;;;;;;;-145.48;100.00;64539.38;5981539;29;20546;-87
2023/09/07 07:03:36;;;;;;;10.90;8.30;;;;;;;-145.48;100.00;64539.38;5980569;29;20050;-87
2023/09/07 07:06:39;;;;;;;10.80;8.02;;;;;;;-145.48;100.00;64539.38;5982590;29;20038;-88
2023/09/07 07:09:41;;;;;;;9.98;7.82;;;;;;;-145.48;100.00;64539.38;5979269;29;20107;-87
2023/09/07 07:12:43;;;;;;;13.00;7.97;;;;;;;-145.48;100.00;64539.38;5981733;29;20042;-88
2023/09/07 07:15:45;;;;;;;12.23;8.80;;;;;;;-145.48;100.00;64539.38;5978387;29;20450;-87
2023/09/07 07:19:05;;;;;;;12.15;8.68;;;;;;;-145.48;100.00;64539.38;5983889;29;20135;-87
2023/09/07 07:22:07;;;;;;;10.25;8.02;;;;;;;-145.48;100.00;64539.38;5977193;29;20055;-87
2023/09/07 07:25:10;;;;;;;9.77;8.07;;;;;;;-145.48;100.00;64539.38;5978856;29;20121;-87
2023/09/07 07:28:13;;;;;;;10.25;7.68;;;;;;;-145.48;100.00;64539.38;5961954;29;20548;-88
2023/09/07 07:31:16;;;;;;;10.23;8.32;;;;;;;-145.48;100.00;64539.38;5967618;29;20042;-87
2023/09/07 07:34:20;;;;;;;11.18;8.02;;;;;;;-145.48;100.00;64539.38;5982245;29;20569;-87
2023/09/07 07:37:22;;;;;;;10.63;8.07;;;;;;;-145.48;100.00;64539.38;5978316;29;20043;-87
2023/09/07 07:40:25;;;;;;;11.63;8.27;;;;;;;-145.48;100.00;64539.38;5980387;29;20595;-87
2023/09/07 07:43:28;;;;;;;11.20;8.70;;;;;;;-145.48;100.00;64539.38;5976990;29;20051;-87
2023/09/07 07:46:30;;;;;;;10.88;8.18;;;;;;;-145.48;100.00;64539.38;5980083;29;20513;-88
2023/09/07 07:49:32;;;;;;;12.07;9.13;;;;;;;-145.48;100.00;64539.38;5983813;29;20050;-87
2023/09/07 07:52:35;;;;;;;12.98;8.45;;;;;;;-145.48;100.00;64539.38;5980105;29;20211;-87
2023/09/07 07:55:38;;;;;;;12.35;9.18;;;;;;;-145.48;100.00;64539.38;5976707;29;20050;-87
2023/09/07 07:58:46;;;;;;;15.02;9.73;;;;;;;-145.48;100.00;64539.38;5954986;29;20039;-88
2023/09/07 08:01:50;;;;;;;13.82;8.70;;;;;;;-145.48;100.00;64539.38;5972793;29;20051;-87
2023/09/07 08:04:52;;;;;;;13.30;8.70;;;;;;;-145.48;100.00;64539.38;5976942;29;20164;-87
2023/09/07 08:07:54;;;;;;;13.73;9.52;;;;;;;-145.48;100.00;64539.38;5959740;29;20074;-87
2023/09/07 08:10:59;;;;;;;10.38;8.25;;;;;;;-145.48;100.00;64539.38;5973199;29;20053;-87
2023/09/07 08:14:02;;;;;;;12.95;9.27;;;;;;;-145.48;100.00;64539.38;5972629;29;20051;-87
2023/09/07 08:17:04;;;;;;;17.77;9.57;;;;;;;-145.48;100.00;64539.38;5979482;29;20088;-87
2023/09/07 08:20:11;;;;;;;14.50;9.43;;;;;;;-145.48;100.00;64539.38;5978723;29;20043;-87
2023/09/07 08:23:13;;;;;;;15.13;8.55;;;;;;;-145.48;100.00;64539.38;5971766;29;20532;-87
2023/09/07 08:26:15;;;;;;;14.27;9.77;;;;;;;-145.48;100.00;64539.38;5965384;29;20629;-87
2023/09/07 08:29:20;;;;;;;12.43;8.70;;;;;;;-145.48;100.00;64539.38;5977923;29;20138;-87
2023/09/07 08:32:22;;;;;;;18.15;9.45;;;;;;;-145.48;100.00;64539.38;5980676;29;20041;-87
2023/09/07 08:35:27;;;;;;;13.88;8.98;;;;;;;-145.48;100.00;64539.38;5980963;29;20058;-88
2023/09/07 08:38:30;;;;;;;13.68;8.98;;;;;;;-145.48;100.00;64539.38;5990768;29;20046;-87
2023/09/07 08:41:43;;;;;;;15.65;9.15;;;;;;;-145.48;100.00;64539.38;5980444;29;20050;-87
2023/09/07 08:45:06;;;;;;;13.55;9.10;;;;;;;-145.48;100.00;64539.38;5969221;29;20493;-87
2023/09/07 08:48:12;;;;;;;15.35;8.82;;;;;;;-145.48;100.00;64539.38;5969167;29;20569;-88
2023/09/07 08:51:16;;;;;;;14.27;9.05;;;;;;;-145.48;100.00;64539.38;5971264;29;20114;-87
2023/09/07 08:54:19;;;;;;;14.63;8.32;;;;;;;-145.48;100.00;64539.38;5965311;29;20043;-88
2023/09/07 08:57:22;;;;;;;14.82;9.10;;;;;;;-145.48;100.00;64539.38;5972541;29;20047;-88
2023/09/07 09:00:24;;;;;;;10.15;8.05;;;;;;;-145.48;100.00;64539.38;5980021;29;20071;-87
2023/09/07 09:03:27;;;;;;;10.75;8.40;;;;;;;-145.48;100.00;64539.38;5980832;29;20065;-87
2023/09/07 09:06:29;;;;;;;13.02;8.05;;;;;;;-145.48;100.00;64539.38;5986952;29;20121;-88
2023/09/07 09:09:32;;;;;;;12.05;8.38;;;;;;;-145.48;100.00;64539.38;5969691;29;20039;-87
2023/09/07 09:12:34;;;;;;;10.93;7.80;;;;;;;-145.48;100.00;64539.38;5982191;29;20062;-88
2023/09/07 09:15:36;;;;;;;14.02;7.70;;;;;;;-145.48;100.00;64539.38;5984322;29;20375;-88
2023/09/07 09:18:47;;;;;;;8.57;6.97;;;;;;;-145.48;100.00;64539.38;5983494;29;20054;-88
2023/09/07 09:21:49;;;;;;;9.30;7.10;;;;;;;-145.48;100.00;64539.38;5982632;29;20494;-88
2023/09/07 09:24:51;;;;;;;11.57;6.85;;;;;;;-145.48;100.00;64539.38;5977875;29;20623;-87
2023/09/07 09:27:53;;;;;;;9.48;7.47;;;;;;;-145.48;100.00;64539.38;5987347;29;20046;-87
2023/09/07 09:30:55;;;;;;;9.68;6.68;;;;;;;-145.48;100.00;64539.38;5982412;29;20067;-87
2023/09/07 09:33:58;;;;;;;8.30;6.53;;;;;;;-145.48;100.00;64539.38;5979918;29;20043;-88
2023/09/07 09:37:02;;;;;;;7.53;6.15;;;;;;;-145.48;100.00;64539.38;5982100;29;20457;-87
2023/09/07 09:40:05;;;;;;;11.15;6.38;;;;;;;-145.48;100.00;64539.38;5980744;29;20051;-87
2023/09/07 09:43:08;;;;;;;9.23;5.90;;;;;;;-145.48;100.00;64539.38;5979481;29;20351;-87
2023/09/07 09:46:12;;;;;;;9.65;6.63;;;;;;;-145.48;100.00;64539.38;5983577;29;20159;-87
2023/09/07 09:49:15;;;;;;;11.75;6.55;;;;;;;-145.48;100.00;64539.38;5978483;29;20051;-87
2023/09/07 09:52:17;;;;;;;7.38;6.03;;;;;;;-145.48;100.00;64539.38;5983436;29;20046;-87
2023/09/07 09:55:19;;;;;;;11.93;6.28;;;;;;;-145.48;100.00;64539.38;5982204;29;20054;-87
2023/09/07 09:58:22;;;;;;;8.55;5.70;;;;;;;-145.48;100.00;64539.38;5982915;29;20058;-87
2023/09/07 10:01:24;;;;;;;8.02;5.63;;;;;;;-145.48;100.00;64539.38;5981892;29;20046;-87
2023/09/07 10:04:29;;;;;;;8.63;5.68;;;;;;;-145.48;100.00;64539.38;5973000;29;20132;-88
2023/09/07 10:07:47;;;;;;;6.18;5.38;;;;;;;-145.48;100.00;64539.38;5978478;29;20050;-87
2023/09/07 10:10:56;;;;;;;7.55;5.60;;;;;;;-145.48;100.00;64539.38;5982278;29;20502;-88
2023/09/07 10:14:00;;;;;;;7.47;5.20;;;;;;;-145.48;100.00;64539.38;5982180;29;20050;-87
2023/09/07 10:17:04;;;;;;;9.20;5.50;;;;;;;-145.48;100.00;64539.38;5976121;29;20047;-87
2023/09/07 10:20:07;;;;;;;7.82;5.57;;;;;;;-145.48;100.00;64539.38;5981712;29;20043;-87
2023/09/07 10:23:09;;;;;;;10.45;5.68;;;;;;;-145.48;100.00;64539.38;5982975;29;20498;-87
2023/09/07 10:26:15;;;;;;;7.70;5.53;;;;;;;-145.48;100.00;64539.38;5984536;29;20042;-87
2023/09/07 10:29:19;;;;;;;8.90;5.72;;;;;;;-145.48;100.00;64539.38;5966747;29;20141;-87
2023/09/07 10:32:21;;;;;;;6.78;5.35;;;;;;;-145.48;100.00;64539.38;5980006;29;20050;-87
2023/09/07 10:35:28;;;;;;;7.38;5.28;;;;;;;-145.48;100.00;64539.38;5980891;29;20124;-88
2023/09/07 10:38:36;;;;;;;5.13;4.63;;;;;;;-145.48;100.00;64539.38;5965856;29;20046;-87
2023/09/07 10:41:42;;;;;;;6.63;5.43;;;;;;;-145.48;100.00;64539.38;5973601;29;20095;-88
2023/09/07 10:44:44;;;;;;;5.65;4.80;;;;;;;-145.48;100.00;64539.38;5989346;29;20421;-88
2023/09/07 10:47:47;;;;;;;7.60;4.97;;;;;;;-145.48;100.00;64539.38;5965393;29;20054;-88
2023/09/07 10:50:51;;;;;;;7.20;4.70;;;;;;;-145.48;100.00;64539.38;5961711;29;20058;-88
2023/09/07 10:53:55;;;;;;;5.53;4.40;;;;;;;-145.48;100.00;64539.38;5982261;29;20054;-89
2023/09/07 10:57:11;;;;;;;7.90;4.90;;;;;;;-145.48;100.00;64539.38;5981904;29;20052;-89
2023/09/07 11:00:14;;;;;;;6.63;4.40;;;;;;;-145.48;100.00;64539.38;5975739;29;20429;-88
2023/09/07 11:03:16;;;;;;;6.97;4.97;;;;;;;-145.48;100.00;64539.38;5964149;29;20057;-87
2023/09/07 11:06:21;;;;;;;8.30;4.45;;;;;;;-145.48;100.00;64539.38;5976487;29;20047;-88
2023/09/07 11:09:26;;;;;;;6.22;3.80;;;;;;;-145.48;100.00;64539.38;5980797;29;20162;-88
2023/09/07 11:12:28;;;;;;;7.07;4.47;;;;;;;-145.48;100.00;64539.38;5972185;29;20059;-88
2023/09/07 11:15:31;;;;;;;5.07;3.80;;;;;;;-145.48;100.00;64539.38;5987778;29;20043;-88
2023/09/07 11:18:36;;;;;;;6.32;4.55;;;;;;;-145.48;100.00;64539.38;5971455;29;20050;-87
2023/09/07 11:21:39;;;;;;;6.40;4.43;;;;;;;-145.48;100.00;64539.38;5980702;29;20052;-88
2023/09/07 11:24:42;;;;;;;7.70;4.85;;;;;;;-145.48;100.00;64539.38;5970804;29;20136;-88
2023/09/07 11:27:47;;;;;;;6.40;4.47;;;;;;;-145.48;100.00;64539.38;5980332;29;20050;-88
2023/09/07 11:30:53;;;;;;;7.10;4.70;;;;;;;-145.48;100.00;64539.38;5988974;29;20042;-87
2023/09/07 11:33:56;;;;;;;5.63;4.35;;;;;;;-145.48;100.00;64539.38;5986031;29;20133;-87
2023/09/07 11:36:58;;;;;;;6.00;4.47;;;;;;;-145.48;100.00;64539.38;5976130;29;20047;-88
2023/09/07 11:40:00;;;;;;;5.47;4.50;;;;;;;-145.48;100.00;64539.38;5971944;29;20039;-87
2023/09/07 11:43:02;;;;;;;7.55;3.90;;;;;;;-145.48;100.00;64539.38;5975869;29;20046;-87
2023/09/07 11:46:04;;;;;;;6.00;4.40;;;;;;;-145.48;100.00;64539.38;5982129;29;20046;-87
2023/09/07 11:49:11;;;;;;;4.40;3.95;;;;;;;-145.48;100.00;64539.38;5973147;29;20054;-87
2023/09/07 11:52:13;;;;;;;5.68;4.85;;;;;;;-145.48;100.00;64539.38;5971625;29;20065;-87
2023/09/07 11:55:16;;;;;;;4.38;3.90;;;;;;;-145.48;100.00;64539.38;5989018;29;20184;-87
2023/09/07 11:58:18;;;;;;;5.18;4.43;;;;;;;-145.48;100.00;64539.38;5980679;29;20050;-88
2023/09/07 12:01:20;;;;;;;6.28;4.10;;;;;;;-145.48;100.00;64539.38;5982157;29;20042;-87
2023/09/07 12:04:23;;;;;;;5.03;3.95;;;;;;;-145.48;100.00;64539.38;5982098;29;20046;-87
2023/09/07 12:07:25;;;;;;;6.55;3.95;;;;;;;-145.48;100.00;64539.38;5980518;29;20090;-87
2023/09/07 12:10:27;;;;;;;5.13;3.80;;;;;;;-145.48;100.00;64539.38;5980495;29;20050;-88
2023/09/07 12:13:29;;;;;;;7.60;4.70;;;;;;;-145.48;100.00;64539.38;5970267;29;20047;-88
2023/09/07 12:16:32;;;;;;;5.13;4.00;;;;;;;-145.48;100.00;64539.38;5969402;29;20050;-88
2023/09/07 12:19:34;;;;;;;4.70;4.00;;;;;;;-145.48;100.00;64539.38;5968038;29;20398;-87
2023/09/07 12:22:37;;;;;;;4.13;3.75;;;;;;;-145.48;100.00;64539.38;5953105;29;20066;-88
2023/09/07 12:25:39;;;;;;;4.55;4.15;;;;;;;-145.48;100.00;64539.38;5973687;29;20149;-88
2023/09/07 12:28:41;;;;;;;7.95;4.55;;;;;;;-145.48;100.00;64539.38;5956635;29;20050;-88
2023/09/07 12:31:43;;;;;;;6.05;4.00;;;;;;;-145.48;100.00;64539.38;5978349;29;20057;-88
2023/09/07 12:34:53;;;;;;;5.97;4.05;;;;;;;-145.48;100.00;64539.38;5977840;29;20391;-88
2023/09/07 12:37:55;;;;;;;5.32;3.60;;;;;;;-145.48;100.00;64539.38;5967201;29;20054;-88
2023/09/07 12:40:57;;;;;;;7.70;3.90;;;;;;;-145.48;100.00;64539.38;5972660;29;20474;-88
2023/09/07 12:43:59;;;;;;;5.00;3.95;;;;;;;-145.48;100.00;64539.38;5978965;29;20054;-88
2023/09/07 12:47:01;;;;;;;4.13;3.72;;;;;;;-145.48;100.00;64539.38;5968006;29;20494;-88
2023/09/07 12:50:04;;;;;;;5.38;3.65;;;;;;;-145.48;100.00;64539.38;5968260;29;20043;-88
2023/09/07 12:53:06;;;;;;;5.45;3.88;;;;;;;-145.48;100.00;64539.38;5960987;29;20055;-88
2023/09/07 12:56:08;;;;;;;7.95;4.40;;;;;;;-145.48;100.00;64539.38;5977359;29;20083;-88
2023/09/07 12:59:10;;;;;;;6.13;4.00;;;;;;;-145.48;100.00;64539.38;5973089;29;20142;-88
2023/09/07 13:02:12;;;;;;;5.10;4.22;;;;;;;-145.48;100.00;64539.38;5980253;29;20057;-87
2023/09/07 13:05:14;;;;;;;4.50;4.00;;;;;;;-145.48;100.00;64539.38;5967039;29;20110;-87
2023/09/07 13:08:16;;;;;;;4.57;4.00;;;;;;;-145.48;100.00;64539.38;5966442;29;20279;-88
2023/09/07 13:11:18;;;;;;;4.15;3.83;;;;;;;-145.48;100.00;64539.38;5980204;29;20042;-88
2023/09/07 13:14:20;;;;;;;5.13;3.50;;;;;;;-145.48;100.00;64539.38;5974131;29;20437;-88
2023/09/07 13:17:34;;;;;;;5.47;3.83;;;;;;;-145.48;100.00;64539.38;5977094;29;20081;-88
2023/09/07 13:20:36;;;;;;;4.32;3.90;;;;;;;-145.48;100.00;64539.38;5973969;29;20061;-88
2023/09/07 13:23:38;;;;;;;4.13;3.72;;;;;;;-145.48;100.00;64539.38;5979030;29;20417;-87
2023/09/07 13:26:40;;;;;;;9.10;3.95;;;;;;;-145.48;100.00;64539.38;5985238;29;20081;-88
2023/09/07 13:29:43;;;;;;;4.97;4.15;;;;;;;-145.48;100.00;64539.38;5983140;29;20050;-88
2023/09/07 13:32:46;;;;;;;5.10;3.83;;;;;;;-145.48;100.00;64539.38;5973917;29;20057;-88
2023/09/07 13:35:49;;;;;;;4.28;3.70;;;;;;;-145.48;100.00;64539.38;5972940;29;20050;-88
2023/09/07 13:38:56;;;;;;;5.75;3.95;;;;;;;-145.48;100.00;64539.38;5968022;29;20130;-88
2023/09/07 13:41:58;;;;;;;5.15;3.70;;;;;;;-145.48;100.00;64539.38;5971923;29;20057;-88
2023/09/07 13:45:00;;;;;;;5.32;3.55;;;;;;;-145.48;100.00;64539.38;5959597;29;20051;-88
2023/09/07 13:48:03;;;;;;;6.40;3.70;;;;;;;-145.48;100.00;64539.38;5980032;29;20070;-88
2023/09/07 13:51:06;;;;;;;4.55;3.75;;;;;;;-145.48;100.00;64539.38;5980239;29;20050;-88